Santa Cruz, CA (95060)

11:02 AM PDT en Octubre 24, 2014 (GMT -0700)
Walnut/King | Change Station
CLOSE
Current Station
Estación meteorológica personal
Location: Santa Cruz, CA
Altura: 70 ft
Estaciones meteorológicas cercanas

Alt 70 ft 36.97 °N, 122.04 °W | Updated 5 seconds ago

Muy nublado
Muy nublado
62.2 ° F
Sensación térmica 62.2 ° F
N
2.0
Viento Variable Viento desde SSO
Gusts 5.0 mph

Hoy
Alta -- | Baja -- ° F
--% Posibilidad de precipitaciones
Ayer
Alta -- | Baja -- ° F
Precip. -- pul
7:24 AM 6:19 PM
Luna nueva, 1% visible
Presión 29.99 pul
Visibilidad 10.0 Millas
Nubes Despejado
Punto de rocío 57 ° F
Humedad 83%
Precipitaciones 0.00 pul
Espesor de la nieve No disponible.
UV 2.1 de una escala de 12
Polen 2.60 de una escala de 12
Calidad del aire No disponible.
Flu Activity Sporadic
METAR KWVI 241753Z AUTO 14003KT 10SM CLR 18/13 A2999 RMK AO2 SLP153 T01830133 10183 20111 58001

More Conditions Fewer Conditions

Presión 29.99 pul
Visibilidad 10.0 Millas
Nubes Despejado
Punto de rocío 57 ° F
Humedad 83%
Precipitaciones 0.00 pul
Espesor de la nieve No disponible.
UV 2.1 de una escala de 12
Polen 2.60 de una escala de 12
Calidad del aire No disponible.
Flu Activity Sporadic
METAR KWVI 241753Z AUTO 14003KT 10SM CLR 18/13 A2999 RMK AO2 SLP153 T01830133 10183 20111 58001

More Conditions Fewer Conditions

10-Day Weather Forecast

Almanac

Astronomía

Oct. 24, 2014 Salida Puesta
Hora real 7:24 AM PDT 6:19 PM PDT
Crepúsculo civil 6:57 AM PDT 6:46 PM PDT
Crepúsculo náutico 6:27 AM PDT 7:16 PM PDT
Crepúsculo astronómico 5:57 AM PDT 7:46 PM PDT
Luna 8:07 AM PDT 7:04 PM PDT
Horas de luz 11h 48m
Horas de luz
10h 55m
Tomorrow will be 2m 10s shorter.
Luna nueva, 1% of the Moon is Illuminated
Hoy
Luna nueva
Oct 30
Cuarto creciente
Nov 6
Luna llena
Nov 14
Cuarto menguante
Nov 22
Nueva

Extremos de hoy

Máximos del estado Bajos del estado

Community

WunderPhotos

Upload Photos

1,764,628 ¡fotos cargadas!

Nearby

Grosos de nieve

Estación Profundido Altura
Leavitt Lake 0 in 9400 ft
Blue Lakes 0 in 8000 ft
Forestdale Creek 0 in 8029 ft
Leavitt Meadows 0 in 7200 ft
Echo Peak 0 in 7800 ft

Actividad de terremotos

Ciudad Distance Mag. Tiempo y dato
No hay informes recientes de la actividad sísmica.
Magnitud mínima muestra es 2,5.

Temperaturas de aguas costeras

Lugar Temperatura
Redwood City, CA 66.0 ° F

Estaciones meteorológicas cercanas